Terminal Aerodrome Forecast
Issued by NWS Bismarck, ND

Home | Current Version | Previous Version | Graphics & Text | Print | Product List | Glossary On
Versions: 1 2 3 4 5 6 7 8 9 10 11 12 13 14 15 16 17
000
FTUS43 KBIS 290528
TAFBIS
TAF
KBIS 290528Z 2906/3006 36015G20KT P6SM BKN050
     FM290800 35018G28KT P6SM OVC020
     FM291600 36012KT P6SM SCT060
     FM300200 05005KT P6SM SKC=

USA.gov is the U.S. government's official web portal to all federal, state and local government web resources and services.